sensor_id;sensor_type;location;lat;lon;timestamp;P1;durP1;ratioP1;P2;durP2;ratioP2
28455;SDS011;15682;56.742;38.866;2023-08-21T00:00:20;5.6;;;2.4;;
28455;SDS011;15682;56.742;38.866;2023-08-21T00:02:20;4.8;;;2.0;;
28455;SDS011;15682;56.742;38.866;2023-08-21T00:04:20;6.4;;;2.5;;
28455;SDS011;15682;56.742;38.866;2023-08-21T00:06:21;4.9;;;2.1;;
28455;SDS011;15682;56.742;38.866;2023-08-21T00:08:21;5.0;;;2.0;;
28455;SDS011;15682;56.742;38.866;2023-08-21T00:10:21;5.8;;;2.0;;
28455;SDS011;15682;56.742;38.866;2023-08-21T00:12:21;7.3;;;1.9;;
28455;SDS011;15682;56.742;38.866;2023-08-21T00:14:22;5.4;;;2.3;;
28455;SDS011;15682;56.742;38.866;2023-08-21T00:16:22;4.7;;;2.0;;
28455;SDS011;15682;56.742;38.866;2023-08-21T00:18:22;8.3;;;2.1;;
28455;SDS011;15682;56.742;38.866;2023-08-21T00:20:22;5.3;;;2.2;;
28455;SDS011;15682;56.742;38.866;2023-08-21T00:22:22;4.3;;;2.0;;
28455;SDS011;15682;56.742;38.866;2023-08-21T00:24:23;6.2;;;1.9;;
28455;SDS011;15682;56.742;38.866;2023-08-21T00:26:23;4.8;;;2.2;;
28455;SDS011;15682;56.742;38.866;2023-08-21T00:28:23;4.4;;;2.0;;
28455;SDS011;15682;56.742;38.866;2023-08-21T00:30:23;7.2;;;2.1;;
28455;SDS011;15682;56.742;38.866;2023-08-21T00:32:23;4.6;;;1.8;;
28455;SDS011;15682;56.742;38.866;2023-08-21T00:34:24;2.4;;;1.9;;
28455;SDS011;15682;56.742;38.866;2023-08-21T00:36:24;5.0;;;2.1;;
28455;SDS011;15682;56.742;38.866;2023-08-21T00:38:24;4.0;;;1.8;;
28455;SDS011;15682;56.742;38.866;2023-08-21T00:40:24;8.7;;;2.2;;
28455;SDS011;15682;56.742;38.866;2023-08-21T00:42:25;5.2;;;2.0;;
28455;SDS011;15682;56.742;38.866;2023-08-21T00:44:25;5.5;;;2.0;;
28455;SDS011;15682;56.742;38.866;2023-08-21T00:46:25;4.3;;;1.9;;
28455;SDS011;15682;56.742;38.866;2023-08-21T00:48:25;6.8;;;2.3;;
28455;SDS011;15682;56.742;38.866;2023-08-21T00:50:25;4.4;;;2.0;;
28455;SDS011;15682;56.742;38.866;2023-08-21T00:52:26;4.8;;;1.9;;
28455;SDS011;15682;56.742;38.866;2023-08-21T00:54:26;4.7;;;2.0;;
28455;SDS011;15682;56.742;38.866;2023-08-21T00:56:26;3.3;;;1.9;;
28455;SDS011;15682;56.742;38.866;2023-08-21T00:58:26;5.2;;;1.9;;
28455;SDS011;15682;56.742;38.866;2023-08-21T01:00:27;4.6;;;2.0;;
28455;SDS011;15682;56.742;38.866;2023-08-21T01:02:27;5.4;;;1.9;;
28455;SDS011;15682;56.742;38.866;2023-08-21T01:04:27;3.7;;;2.0;;
28455;SDS011;15682;56.742;38.866;2023-08-21T01:06:27;3.1;;;1.8;;
28455;SDS011;15682;56.742;38.866;2023-08-21T01:08:29;6.8;;;2.0;;
28455;SDS011;15682;56.742;38.866;2023-08-21T01:10:31;4.6;;;1.9;;
28455;SDS011;15682;56.742;38.866;2023-08-21T01:12:29;5.6;;;1.9;;
28455;SDS011;15682;56.742;38.866;2023-08-21T01:14:29;5.3;;;2.0;;
28455;SDS011;15682;56.742;38.866;2023-08-21T01:16:28;7.0;;;2.1;;
28455;SDS011;15682;56.742;38.866;2023-08-21T01:18:28;5.0;;;1.9;;
28455;SDS011;15682;56.742;38.866;2023-08-21T01:20:29;6.2;;;2.2;;
28455;SDS011;15682;56.742;38.866;2023-08-21T01:22:35;3.9;;;2.0;;
28455;SDS011;15682;56.742;38.866;2023-08-21T01:24:29;5.9;;;2.1;;
28455;SDS011;15682;56.742;38.866;2023-08-21T01:26:29;4.9;;;2.2;;
28455;SDS011;15682;56.742;38.866;2023-08-21T01:28:30;5.1;;;2.2;;
28455;SDS011;15682;56.742;38.866;2023-08-21T01:30:30;6.3;;;2.5;;
28455;SDS011;15682;56.742;38.866;2023-08-21T01:32:32;9.9;;;2.3;;
28455;SDS011;15682;56.742;38.866;2023-08-21T01:34:30;8.1;;;2.1;;
28455;SDS011;15682;56.742;38.866;2023-08-21T01:36:30;4.7;;;1.7;;
28455;SDS011;15682;56.742;38.866;2023-08-21T01:38:31;5.5;;;1.9;;
28455;SDS011;15682;56.742;38.866;2023-08-21T01:40:31;4.2;;;1.9;;
28455;SDS011;15682;56.742;38.866;2023-08-21T01:42:31;5.7;;;1.8;;
28455;SDS011;15682;56.742;38.866;2023-08-21T01:44:31;8.1;;;1.7;;
28455;SDS011;15682;56.742;38.866;2023-08-21T01:46:31;7.7;;;1.5;;
28455;SDS011;15682;56.742;38.866;2023-08-21T01:48:31;7.9;;;1.5;;
28455;SDS011;15682;56.742;38.866;2023-08-21T01:50:32;11.1;;;1.6;;
28455;SDS011;15682;56.742;38.866;2023-08-21T01:52:32;7.3;;;1.4;;
28455;SDS011;15682;56.742;38.866;2023-08-21T01:54:32;10.1;;;1.6;;
28455;SDS011;15682;56.742;38.866;2023-08-21T01:56:32;7.6;;;1.5;;
28455;SDS011;15682;56.742;38.866;2023-08-21T01:58:32;4.4;;;1.5;;
28455;SDS011;15682;56.742;38.866;2023-08-21T02:00:33;4.3;;;1.4;;
28455;SDS011;15682;56.742;38.866;2023-08-21T02:02:33;7.5;;;1.7;;
28455;SDS011;15682;56.742;38.866;2023-08-21T02:04:33;4.5;;;1.3;;
28455;SDS011;15682;56.742;38.866;2023-08-21T02:06:33;5.5;;;1.6;;
28455;SDS011;15682;56.742;38.866;2023-08-21T02:08:33;3.2;;;1.4;;
28455;SDS011;15682;56.742;38.866;2023-08-21T02:10:34;7.4;;;1.7;;
28455;SDS011;15682;56.742;38.866;2023-08-21T02:12:34;9.4;;;1.7;;
28455;SDS011;15682;56.742;38.866;2023-08-21T02:14:34;6.5;;;1.8;;
28455;SDS011;15682;56.742;38.866;2023-08-21T02:16:34;10.9;;;2.2;;
28455;SDS011;15682;56.742;38.866;2023-08-21T02:18:34;8.8;;;1.8;;
28455;SDS011;15682;56.742;38.866;2023-08-21T02:20:34;8.6;;;1.6;;
28455;SDS011;15682;56.742;38.866;2023-08-21T02:22:35;5.7;;;1.6;;
28455;SDS011;15682;56.742;38.866;2023-08-21T02:24:35;8.6;;;1.9;;
28455;SDS011;15682;56.742;38.866;2023-08-21T02:26:35;11.0;;;2.3;;
28455;SDS011;15682;56.742;38.866;2023-08-21T02:28:35;6.4;;;2.3;;
28455;SDS011;15682;56.742;38.866;2023-08-21T02:30:35;8.1;;;2.3;;
28455;SDS011;15682;56.742;38.866;2023-08-21T02:32:35;5.2;;;1.8;;
28455;SDS011;15682;56.742;38.866;2023-08-21T02:34:36;6.8;;;2.0;;
28455;SDS011;15682;56.742;38.866;2023-08-21T02:36:36;8.3;;;2.3;;
28455;SDS011;15682;56.742;38.866;2023-08-21T02:38:36;9.5;;;2.0;;
28455;SDS011;15682;56.742;38.866;2023-08-21T02:40:36;8.9;;;2.1;;
28455;SDS011;15682;56.742;38.866;2023-08-21T02:42:36;7.7;;;2.1;;
28455;SDS011;15682;56.742;38.866;2023-08-21T02:44:37;8.1;;;2.3;;
28455;SDS011;15682;56.742;38.866;2023-08-21T02:46:37;13.3;;;2.4;;
28455;SDS011;15682;56.742;38.866;2023-08-21T02:48:37;8.9;;;2.3;;
28455;SDS011;15682;56.742;38.866;2023-08-21T02:50:37;5.9;;;2.0;;
28455;SDS011;15682;56.742;38.866;2023-08-21T02:52:38;10.8;;;2.2;;
28455;SDS011;15682;56.742;38.866;2023-08-21T02:54:38;7.0;;;2.2;;
28455;SDS011;15682;56.742;38.866;2023-08-21T02:56:38;11.1;;;2.4;;
28455;SDS011;15682;56.742;38.866;2023-08-21T02:58:38;8.6;;;2.4;;
28455;SDS011;15682;56.742;38.866;2023-08-21T03:00:38;6.6;;;2.2;;
28455;SDS011;15682;56.742;38.866;2023-08-21T03:02:38;6.9;;;2.5;;
28455;SDS011;15682;56.742;38.866;2023-08-21T03:04:39;10.0;;;2.3;;
28455;SDS011;15682;56.742;38.866;2023-08-21T03:06:39;8.9;;;2.5;;
28455;SDS011;15682;56.742;38.866;2023-08-21T03:08:39;6.0;;;2.5;;
28455;SDS011;15682;56.742;38.866;2023-08-21T03:10:39;8.9;;;2.3;;
28455;SDS011;15682;56.742;38.866;2023-08-21T03:12:39;6.9;;;2.1;;
28455;SDS011;15682;56.742;38.866;2023-08-21T03:14:39;7.9;;;2.1;;
28455;SDS011;15682;56.742;38.866;2023-08-21T03:16:40;6.2;;;2.2;;
28455;SDS011;15682;56.742;38.866;2023-08-21T03:18:53;7.0;;;2.1;;
28455;SDS011;15682;56.742;38.866;2023-08-21T03:20:43;8.3;;;2.0;;
28455;SDS011;15682;56.742;38.866;2023-08-21T03:22:40;7.9;;;2.3;;
28455;SDS011;15682;56.742;38.866;2023-08-21T03:24:41;6.4;;;1.9;;
28455;SDS011;15682;56.742;38.866;2023-08-21T03:26:41;5.2;;;1.7;;
28455;SDS011;15682;56.742;38.866;2023-08-21T03:28:41;5.8;;;1.9;;
28455;SDS011;15682;56.742;38.866;2023-08-21T03:30:41;6.4;;;1.9;;
28455;SDS011;15682;56.742;38.866;2023-08-21T03:32:42;6.1;;;1.8;;
28455;SDS011;15682;56.742;38.866;2023-08-21T03:34:42;4.1;;;1.9;;
28455;SDS011;15682;56.742;38.866;2023-08-21T03:36:42;5.5;;;2.1;;
28455;SDS011;15682;56.742;38.866;2023-08-21T03:38:42;5.3;;;1.9;;
28455;SDS011;15682;56.742;38.866;2023-08-21T03:40:43;7.3;;;2.3;;
28455;SDS011;15682;56.742;38.866;2023-08-21T03:42:43;3.6;;;2.0;;
28455;SDS011;15682;56.742;38.866;2023-08-21T03:44:43;4.0;;;2.1;;
28455;SDS011;15682;56.742;38.866;2023-08-21T03:46:44;6.7;;;2.0;;
28455;SDS011;15682;56.742;38.866;2023-08-21T03:48:44;6.1;;;2.3;;
28455;SDS011;15682;56.742;38.866;2023-08-21T03:50:44;5.1;;;2.4;;
28455;SDS011;15682;56.742;38.866;2023-08-21T03:52:44;5.9;;;2.3;;
28455;SDS011;15682;56.742;38.866;2023-08-21T03:54:45;8.7;;;2.5;;
28455;SDS011;15682;56.742;38.866;2023-08-21T03:56:45;6.3;;;2.2;;
28455;SDS011;15682;56.742;38.866;2023-08-21T03:58:45;4.9;;;2.3;;
28455;SDS011;15682;56.742;38.866;2023-08-21T04:00:46;3.7;;;2.1;;
28455;SDS011;15682;56.742;38.866;2023-08-21T04:02:46;3.9;;;1.9;;
28455;SDS011;15682;56.742;38.866;2023-08-21T04:04:47;5.9;;;2.2;;
28455;SDS011;15682;56.742;38.866;2023-08-21T04:06:47;6.1;;;2.1;;
28455;SDS011;15682;56.742;38.866;2023-08-21T04:08:48;4.1;;;2.1;;
28455;SDS011;15682;56.742;38.866;2023-08-21T04:10:48;4.9;;;1.9;;
28455;SDS011;15682;56.742;38.866;2023-08-21T04:12:49;8.2;;;1.9;;
28455;SDS011;15682;56.742;38.866;2023-08-21T04:14:49;4.1;;;1.9;;
28455;SDS011;15682;56.742;38.866;2023-08-21T04:16:50;5.5;;;1.8;;
28455;SDS011;15682;56.742;38.866;2023-08-21T04:18:50;5.8;;;2.0;;
28455;SDS011;15682;56.742;38.866;2023-08-21T04:20:51;4.9;;;1.8;;
28455;SDS011;15682;56.742;38.866;2023-08-21T04:22:51;3.9;;;1.8;;
28455;SDS011;15682;56.742;38.866;2023-08-21T04:24:52;5.4;;;1.8;;
28455;SDS011;15682;56.742;38.866;2023-08-21T04:26:53;5.1;;;2.0;;
28455;SDS011;15682;56.742;38.866;2023-08-21T04:28:53;5.7;;;1.7;;
28455;SDS011;15682;56.742;38.866;2023-08-21T04:30:53;3.8;;;1.9;;
28455;SDS011;15682;56.742;38.866;2023-08-21T04:32:54;4.0;;;1.9;;
28455;SDS011;15682;56.742;38.866;2023-08-21T04:34:55;2.4;;;1.7;;
28455;SDS011;15682;56.742;38.866;2023-08-21T04:36:55;7.9;;;1.9;;
28455;SDS011;15682;56.742;38.866;2023-08-21T04:38:56;5.6;;;1.9;;
28455;SDS011;15682;56.742;38.866;2023-08-21T04:41:00;7.1;;;2.1;;
28455;SDS011;15682;56.742;38.866;2023-08-21T04:42:57;5.7;;;2.0;;
28455;SDS011;15682;56.742;38.866;2023-08-21T04:44:57;5.3;;;1.9;;
28455;SDS011;15682;56.742;38.866;2023-08-21T04:46:58;11.1;;;2.2;;
28455;SDS011;15682;56.742;38.866;2023-08-21T04:48:59;6.3;;;1.7;;
28455;SDS011;15682;56.742;38.866;2023-08-21T04:50:59;8.8;;;1.9;;
28455;SDS011;15682;56.742;38.866;2023-08-21T04:53:00;5.3;;;2.0;;
28455;SDS011;15682;56.742;38.866;2023-08-21T04:55:00;9.9;;;2.0;;
28455;SDS011;15682;56.742;38.866;2023-08-21T04:57:01;6.7;;;1.7;;
28455;SDS011;15682;56.742;38.866;2023-08-21T04:59:02;8.2;;;1.8;;
28455;SDS011;15682;56.742;38.866;2023-08-21T05:01:04;6.5;;;1.9;;
28455;SDS011;15682;56.742;38.866;2023-08-21T05:03:03;9.0;;;2.0;;
28455;SDS011;15682;56.742;38.866;2023-08-21T05:05:04;5.8;;;1.9;;
28455;SDS011;15682;56.742;38.866;2023-08-21T05:07:05;7.6;;;1.9;;
28455;SDS011;15682;56.742;38.866;2023-08-21T05:09:05;6.0;;;1.8;;
28455;SDS011;15682;56.742;38.866;2023-08-21T05:11:06;4.3;;;1.6;;
28455;SDS011;15682;56.742;38.866;2023-08-21T05:13:06;9.5;;;1.9;;
28455;SDS011;15682;56.742;38.866;2023-08-21T05:15:07;10.7;;;2.1;;
28455;SDS011;15682;56.742;38.866;2023-08-21T05:17:08;9.4;;;1.8;;
28455;SDS011;15682;56.742;38.866;2023-08-21T05:19:09;7.5;;;1.9;;
28455;SDS011;15682;56.742;38.866;2023-08-21T05:21:09;5.9;;;1.9;;
28455;SDS011;15682;56.742;38.866;2023-08-21T05:23:10;6.6;;;1.7;;
28455;SDS011;15682;56.742;38.866;2023-08-21T05:25:11;7.8;;;1.9;;
28455;SDS011;15682;56.742;38.866;2023-08-21T05:27:12;4.4;;;1.7;;
28455;SDS011;15682;56.742;38.866;2023-08-21T05:29:12;4.7;;;1.7;;
28455;SDS011;15682;56.742;38.866;2023-08-21T05:31:13;4.4;;;1.6;;
28455;SDS011;15682;56.742;38.866;2023-08-21T05:33:13;6.5;;;1.8;;
28455;SDS011;15682;56.742;38.866;2023-08-21T05:35:14;4.7;;;1.7;;
28455;SDS011;15682;56.742;38.866;2023-08-21T05:37:15;5.3;;;1.4;;
28455;SDS011;15682;56.742;38.866;2023-08-21T05:39:15;3.5;;;1.6;;
28455;SDS011;15682;56.742;38.866;2023-08-21T05:41:16;3.8;;;1.7;;
28455;SDS011;15682;56.742;38.866;2023-08-21T05:43:17;4.1;;;1.7;;
28455;SDS011;15682;56.742;38.866;2023-08-21T05:45:18;4.8;;;1.7;;
28455;SDS011;15682;56.742;38.866;2023-08-21T05:47:18;6.1;;;1.8;;
28455;SDS011;15682;56.742;38.866;2023-08-21T05:49:19;9.0;;;1.6;;
28455;SDS011;15682;56.742;38.866;2023-08-21T05:51:20;5.2;;;1.7;;
28455;SDS011;15682;56.742;38.866;2023-08-21T05:53:20;5.0;;;1.6;;
28455;SDS011;15682;56.742;38.866;2023-08-21T05:55:21;3.8;;;1.6;;
28455;SDS011;15682;56.742;38.866;2023-08-21T05:57:22;4.4;;;1.7;;
28455;SDS011;15682;56.742;38.866;2023-08-21T05:59:26;5.8;;;1.5;;
28455;SDS011;15682;56.742;38.866;2023-08-21T06:01:23;4.1;;;1.6;;
28455;SDS011;15682;56.742;38.866;2023-08-21T06:03:24;8.0;;;1.7;;
28455;SDS011;15682;56.742;38.866;2023-08-21T06:05:25;6.8;;;1.9;;
28455;SDS011;15682;56.742;38.866;2023-08-21T06:07:25;9.0;;;1.7;;
28455;SDS011;15682;56.742;38.866;2023-08-21T06:09:26;6.8;;;1.7;;
28455;SDS011;15682;56.742;38.866;2023-08-21T06:11:27;4.9;;;1.4;;
28455;SDS011;15682;56.742;38.866;2023-08-21T06:13:27;8.9;;;1.7;;
28455;SDS011;15682;56.742;38.866;2023-08-21T06:15:28;10.5;;;2.3;;
28455;SDS011;15682;56.742;38.866;2023-08-21T06:17:29;10.3;;;2.1;;
28455;SDS011;15682;56.742;38.866;2023-08-21T06:19:29;4.9;;;1.5;;
28455;SDS011;15682;56.742;38.866;2023-08-21T06:21:30;4.4;;;1.5;;
28455;SDS011;15682;56.742;38.866;2023-08-21T06:23:31;5.8;;;1.5;;
28455;SDS011;15682;56.742;38.866;2023-08-21T06:25:32;6.8;;;1.6;;
28455;SDS011;15682;56.742;38.866;2023-08-21T06:27:32;8.1;;;2.0;;
28455;SDS011;15682;56.742;38.866;2023-08-21T06:29:33;6.3;;;1.7;;
28455;SDS011;15682;56.742;38.866;2023-08-21T06:31:35;4.3;;;1.4;;
28455;SDS011;15682;56.742;38.866;2023-08-21T06:33:34;4.2;;;1.6;;
28455;SDS011;15682;56.742;38.866;2023-08-21T06:35:36;7.0;;;1.5;;
28455;SDS011;15682;56.742;38.866;2023-08-21T06:37:36;5.4;;;1.6;;
28455;SDS011;15682;56.742;38.866;2023-08-21T06:39:36;10.5;;;1.7;;
28455;SDS011;15682;56.742;38.866;2023-08-21T06:41:37;5.5;;;1.7;;
28455;SDS011;15682;56.742;38.866;2023-08-21T06:43:38;7.9;;;1.6;;
28455;SDS011;15682;56.742;38.866;2023-08-21T06:45:38;5.5;;;1.3;;
28455;SDS011;15682;56.742;38.866;2023-08-21T06:47:39;10.5;;;1.8;;
28455;SDS011;15682;56.742;38.866;2023-08-21T06:49:40;6.8;;;1.4;;
28455;SDS011;15682;56.742;38.866;2023-08-21T06:51:40;7.9;;;1.4;;
28455;SDS011;15682;56.742;38.866;2023-08-21T06:53:41;4.1;;;1.3;;
28455;SDS011;15682;56.742;38.866;2023-08-21T06:55:44;3.3;;;1.3;;
28455;SDS011;15682;56.742;38.866;2023-08-21T06:57:43;3.4;;;1.3;;
28455;SDS011;15682;56.742;38.866;2023-08-21T06:59:43;5.8;;;1.3;;
28455;SDS011;15682;56.742;38.866;2023-08-21T07:01:44;4.2;;;1.8;;
28455;SDS011;15682;56.742;38.866;2023-08-21T07:03:45;6.0;;;1.6;;
28455;SDS011;15682;56.742;38.866;2023-08-21T07:05:46;3.9;;;1.4;;
28455;SDS011;15682;56.742;38.866;2023-08-21T07:07:47;5.6;;;1.3;;
28455;SDS011;15682;56.742;38.866;2023-08-21T07:09:47;5.9;;;1.5;;
28455;SDS011;15682;56.742;38.866;2023-08-21T07:11:48;3.3;;;1.3;;
28455;SDS011;15682;56.742;38.866;2023-08-21T07:13:48;3.1;;;1.4;;
28455;SDS011;15682;56.742;38.866;2023-08-21T07:15:52;4.0;;;1.5;;
28455;SDS011;15682;56.742;38.866;2023-08-21T07:17:50;5.0;;;1.3;;
28455;SDS011;15682;56.742;38.866;2023-08-21T07:19:50;6.3;;;1.2;;
28455;SDS011;15682;56.742;38.866;2023-08-21T07:21:51;3.1;;;1.2;;
28455;SDS011;15682;56.742;38.866;2023-08-21T07:23:52;4.6;;;1.4;;
28455;SDS011;15682;56.742;38.866;2023-08-21T07:25:52;4.1;;;1.3;;
28455;SDS011;15682;56.742;38.866;2023-08-21T07:27:53;3.4;;;1.1;;
28455;SDS011;15682;56.742;38.866;2023-08-21T07:29:53;4.3;;;1.3;;
28455;SDS011;15682;56.742;38.866;2023-08-21T07:31:54;4.3;;;1.2;;
28455;SDS011;15682;56.742;38.866;2023-08-21T07:33:54;4.4;;;1.5;;
28455;SDS011;15682;56.742;38.866;2023-08-21T07:35:56;8.0;;;1.3;;
28455;SDS011;15682;56.742;38.866;2023-08-21T07:37:56;5.2;;;1.3;;
28455;SDS011;15682;56.742;38.866;2023-08-21T07:39:56;4.9;;;1.4;;
28455;SDS011;15682;56.742;38.866;2023-08-21T07:41:56;3.2;;;1.3;;
28455;SDS011;15682;56.742;38.866;2023-08-21T07:43:57;9.1;;;1.6;;
28455;SDS011;15682;56.742;38.866;2023-08-21T07:45:57;2.7;;;1.2;;
28455;SDS011;15682;56.742;38.866;2023-08-21T07:47:58;4.2;;;1.4;;
28455;SDS011;15682;56.742;38.866;2023-08-21T07:49:58;5.3;;;1.3;;
28455;SDS011;15682;56.742;38.866;2023-08-21T07:51:59;5.8;;;1.5;;
28455;SDS011;15682;56.742;38.866;2023-08-21T07:53:59;5.7;;;1.5;;
28455;SDS011;15682;56.742;38.866;2023-08-21T07:56:00;3.7;;;1.5;;
28455;SDS011;15682;56.742;38.866;2023-08-21T07:58:00;6.1;;;1.5;;
28455;SDS011;15682;56.742;38.866;2023-08-21T08:00:01;4.8;;;1.2;;
28455;SDS011;15682;56.742;38.866;2023-08-21T08:02:01;8.6;;;1.3;;
28455;SDS011;15682;56.742;38.866;2023-08-21T08:04:01;4.6;;;1.2;;
28455;SDS011;15682;56.742;38.866;2023-08-21T08:06:02;3.4;;;1.1;;
28455;SDS011;15682;56.742;38.866;2023-08-21T08:08:03;7.0;;;1.4;;
28455;SDS011;15682;56.742;38.866;2023-08-21T08:10:03;6.9;;;1.3;;
28455;SDS011;15682;56.742;38.866;2023-08-21T08:12:03;8.2;;;1.4;;
28455;SDS011;15682;56.742;38.866;2023-08-21T08:14:04;5.5;;;1.3;;
28455;SDS011;15682;56.742;38.866;2023-08-21T08:16:04;4.3;;;1.2;;
28455;SDS011;15682;56.742;38.866;2023-08-21T08:18:05;3.3;;;1.3;;
28455;SDS011;15682;56.742;38.866;2023-08-21T08:20:05;6.3;;;1.4;;
28455;SDS011;15682;56.742;38.866;2023-08-21T08:22:05;6.7;;;1.5;;
28455;SDS011;15682;56.742;38.866;2023-08-21T08:24:06;7.3;;;1.6;;
28455;SDS011;15682;56.742;38.866;2023-08-21T08:26:06;4.0;;;1.4;;
28455;SDS011;15682;56.742;38.866;2023-08-21T08:28:07;3.5;;;1.3;;
28455;SDS011;15682;56.742;38.866;2023-08-21T08:30:07;6.4;;;1.5;;
28455;SDS011;15682;56.742;38.866;2023-08-21T08:32:08;3.1;;;1.1;;
28455;SDS011;15682;56.742;38.866;2023-08-21T08:34:08;5.2;;;1.5;;
28455;SDS011;15682;56.742;38.866;2023-08-21T08:36:08;3.3;;;1.3;;
28455;SDS011;15682;56.742;38.866;2023-08-21T08:38:09;6.3;;;1.3;;
28455;SDS011;15682;56.742;38.866;2023-08-21T08:40:10;3.2;;;1.2;;
28455;SDS011;15682;56.742;38.866;2023-08-21T08:42:10;4.5;;;1.4;;
28455;SDS011;15682;56.742;38.866;2023-08-21T08:44:10;6.9;;;1.5;;
28455;SDS011;15682;56.742;38.866;2023-08-21T08:46:10;6.2;;;1.3;;
28455;SDS011;15682;56.742;38.866;2023-08-21T08:48:11;4.1;;;1.6;;
28455;SDS011;15682;56.742;38.866;2023-08-21T08:50:11;3.2;;;1.4;;
28455;SDS011;15682;56.742;38.866;2023-08-21T08:52:12;4.0;;;1.4;;
28455;SDS011;15682;56.742;38.866;2023-08-21T08:54:12;5.8;;;1.4;;
28455;SDS011;15682;56.742;38.866;2023-08-21T08:56:13;5.8;;;1.4;;
28455;SDS011;15682;56.742;38.866;2023-08-21T08:58:13;9.1;;;1.3;;
28455;SDS011;15682;56.742;38.866;2023-08-21T09:00:14;5.5;;;1.4;;
28455;SDS011;15682;56.742;38.866;2023-08-21T09:02:14;5.0;;;1.5;;
28455;SDS011;15682;56.742;38.866;2023-08-21T09:04:14;6.7;;;1.7;;
28455;SDS011;15682;56.742;38.866;2023-08-21T09:06:15;3.9;;;1.3;;
28455;SDS011;15682;56.742;38.866;2023-08-21T09:08:15;5.9;;;1.5;;
28455;SDS011;15682;56.742;38.866;2023-08-21T09:10:16;5.2;;;1.3;;
28455;SDS011;15682;56.742;38.866;2023-08-21T09:12:16;5.5;;;1.5;;
28455;SDS011;15682;56.742;38.866;2023-08-21T09:14:17;4.7;;;1.5;;
28455;SDS011;15682;56.742;38.866;2023-08-21T09:16:17;3.2;;;1.2;;
28455;SDS011;15682;56.742;38.866;2023-08-21T09:18:17;5.3;;;1.6;;
28455;SDS011;15682;56.742;38.866;2023-08-21T09:20:18;8.2;;;1.3;;
28455;SDS011;15682;56.742;38.866;2023-08-21T09:22:19;11.2;;;1.7;;
28455;SDS011;15682;56.742;38.866;2023-08-21T09:24:19;6.0;;;1.4;;
28455;SDS011;15682;56.742;38.866;2023-08-21T09:26:19;5.7;;;1.4;;
28455;SDS011;15682;56.742;38.866;2023-08-21T09:28:20;5.5;;;1.4;;
28455;SDS011;15682;56.742;38.866;2023-08-21T09:30:20;4.8;;;1.6;;
28455;SDS011;15682;56.742;38.866;2023-08-21T09:32:20;4.6;;;1.5;;
28455;SDS011;15682;56.742;38.866;2023-08-21T09:34:21;8.3;;;2.0;;
28455;SDS011;15682;56.742;38.866;2023-08-21T09:36:21;5.1;;;1.6;;
28455;SDS011;15682;56.742;38.866;2023-08-21T09:38:22;3.5;;;1.3;;
28455;SDS011;15682;56.742;38.866;2023-08-21T09:40:22;5.6;;;1.3;;
28455;SDS011;15682;56.742;38.866;2023-08-21T09:42:22;3.5;;;1.4;;
28455;SDS011;15682;56.742;38.866;2023-08-21T09:44:23;4.4;;;1.4;;
28455;SDS011;15682;56.742;38.866;2023-08-21T09:46:24;6.6;;;1.7;;
28455;SDS011;15682;56.742;38.866;2023-08-21T09:48:24;5.9;;;1.5;;
28455;SDS011;15682;56.742;38.866;2023-08-21T09:50:24;3.9;;;1.4;;
28455;SDS011;15682;56.742;38.866;2023-08-21T09:52:24;4.6;;;1.4;;
28455;SDS011;15682;56.742;38.866;2023-08-21T09:54:25;7.4;;;1.5;;
28455;SDS011;15682;56.742;38.866;2023-08-21T09:56:25;4.1;;;1.4;;
28455;SDS011;15682;56.742;38.866;2023-08-21T09:58:25;5.2;;;1.5;;
28455;SDS011;15682;56.742;38.866;2023-08-21T10:00:27;3.0;;;1.2;;
28455;SDS011;15682;56.742;38.866;2023-08-21T10:02:26;3.2;;;1.4;;
28455;SDS011;15682;56.742;38.866;2023-08-21T10:04:27;8.9;;;3.2;;
28455;SDS011;15682;56.742;38.866;2023-08-21T10:06:27;5.6;;;1.9;;
28455;SDS011;15682;56.742;38.866;2023-08-21T10:08:28;4.9;;;1.5;;
28455;SDS011;15682;56.742;38.866;2023-08-21T10:10:29;6.0;;;1.6;;
28455;SDS011;15682;56.742;38.866;2023-08-21T10:12:28;2.9;;;1.2;;
28455;SDS011;15682;56.742;38.866;2023-08-21T10:14:29;5.0;;;1.3;;
28455;SDS011;15682;56.742;38.866;2023-08-21T10:16:29;3.8;;;1.3;;
28455;SDS011;15682;56.742;38.866;2023-08-21T10:18:30;2.5;;;1.3;;
28455;SDS011;15682;56.742;38.866;2023-08-21T10:20:30;4.0;;;1.3;;
28455;SDS011;15682;56.742;38.866;2023-08-21T10:24:34;3.2;;;1.2;;
28455;SDS011;15682;56.742;38.866;2023-08-21T10:26:33;5.6;;;1.4;;
28455;SDS011;15682;56.742;38.866;2023-08-21T10:30:32;7.4;;;2.1;;
28455;SDS011;15682;56.742;38.866;2023-08-21T10:32:33;3.5;;;1.2;;
28455;SDS011;15682;56.742;38.866;2023-08-21T10:34:34;3.0;;;1.4;;
28455;SDS011;15682;56.742;38.866;2023-08-21T10:36:37;4.2;;;1.3;;
28455;SDS011;15682;56.742;38.866;2023-08-21T10:38:34;3.3;;;1.4;;
28455;SDS011;15682;56.742;38.866;2023-08-21T10:40:35;5.2;;;1.3;;
28455;SDS011;15682;56.742;38.866;2023-08-21T10:42:38;3.6;;;1.1;;
28455;SDS011;15682;56.742;38.866;2023-08-21T10:44:36;3.4;;;1.1;;
28455;SDS011;15682;56.742;38.866;2023-08-21T10:48:36;5.4;;;1.2;;
28455;SDS011;15682;56.742;38.866;2023-08-21T10:50:36;2.2;;;1.2;;
28455;SDS011;15682;56.742;38.866;2023-08-21T10:52:37;2.5;;;1.1;;
28455;SDS011;15682;56.742;38.866;2023-08-21T10:54:45;3.5;;;1.5;;
28455;SDS011;15682;56.742;38.866;2023-08-21T10:56:37;2.6;;;1.2;;
28455;SDS011;15682;56.742;38.866;2023-08-21T10:58:40;5.2;;;1.4;;
28455;SDS011;15682;56.742;38.866;2023-08-21T11:00:38;5.6;;;1.2;;
28455;SDS011;15682;56.742;38.866;2023-08-21T11:02:40;6.8;;;1.3;;
28455;SDS011;15682;56.742;38.866;2023-08-21T11:04:39;3.5;;;1.3;;
28455;SDS011;15682;56.742;38.866;2023-08-21T11:06:39;3.2;;;1.2;;
28455;SDS011;15682;56.742;38.866;2023-08-21T11:08:40;4.6;;;1.4;;
28455;SDS011;15682;56.742;38.866;2023-08-21T11:10:40;4.1;;;1.3;;
28455;SDS011;15682;56.742;38.866;2023-08-21T11:12:51;5.9;;;1.3;;
28455;SDS011;15682;56.742;38.866;2023-08-21T11:14:41;5.4;;;1.4;;
28455;SDS011;15682;56.742;38.866;2023-08-21T11:16:42;4.4;;;1.4;;
28455;SDS011;15682;56.742;38.866;2023-08-21T11:18:42;3.9;;;1.4;;
28455;SDS011;15682;56.742;38.866;2023-08-21T11:20:42;6.5;;;1.4;;
28455;SDS011;15682;56.742;38.866;2023-08-21T11:22:43;9.0;;;1.4;;
28455;SDS011;15682;56.742;38.866;2023-08-21T11:24:44;6.3;;;1.4;;
28455;SDS011;15682;56.742;38.866;2023-08-21T11:26:44;2.9;;;1.4;;
28455;SDS011;15682;56.742;38.866;2023-08-21T11:28:44;8.2;;;1.4;;
28455;SDS011;15682;56.742;38.866;2023-08-21T11:30:44;4.6;;;1.2;;
28455;SDS011;15682;56.742;38.866;2023-08-21T11:32:45;3.7;;;1.5;;
28455;SDS011;15682;56.742;38.866;2023-08-21T11:34:47;3.2;;;1.3;;
28455;SDS011;15682;56.742;38.866;2023-08-21T11:36:46;7.0;;;1.5;;
28455;SDS011;15682;56.742;38.866;2023-08-21T11:38:57;6.0;;;1.3;;
28455;SDS011;15682;56.742;38.866;2023-08-21T11:40:54;2.4;;;1.3;;
28455;SDS011;15682;56.742;38.866;2023-08-21T11:42:47;3.4;;;1.1;;
28455;SDS011;15682;56.742;38.866;2023-08-21T11:44:49;3.6;;;1.3;;
28455;SDS011;15682;56.742;38.866;2023-08-21T11:46:50;5.9;;;3.0;;
28455;SDS011;15682;56.742;38.866;2023-08-21T11:48:48;3.6;;;1.3;;
28455;SDS011;15682;56.742;38.866;2023-08-21T11:50:49;2.6;;;1.5;;
28455;SDS011;15682;56.742;38.866;2023-08-21T11:52:51;5.4;;;1.4;;
28455;SDS011;15682;56.742;38.866;2023-08-21T11:54:50;7.2;;;1.6;;
28455;SDS011;15682;56.742;38.866;2023-08-21T11:56:50;2.9;;;1.4;;
28455;SDS011;15682;56.742;38.866;2023-08-21T11:58:51;4.7;;;1.5;;
28455;SDS011;15682;56.742;38.866;2023-08-21T12:00:51;4.2;;;1.7;;
28455;SDS011;15682;56.742;38.866;2023-08-21T12:02:54;6.3;;;1.6;;
28455;SDS011;15682;56.742;38.866;2023-08-21T12:04:52;6.2;;;1.4;;
28455;SDS011;15682;56.742;38.866;2023-08-21T12:06:52;5.2;;;1.4;;
28455;SDS011;15682;56.742;38.866;2023-08-21T12:08:53;6.3;;;1.4;;
28455;SDS011;15682;56.742;38.866;2023-08-21T12:10:53;5.6;;;1.3;;
28455;SDS011;15682;56.742;38.866;2023-08-21T12:12:54;4.5;;;1.6;;
28455;SDS011;15682;56.742;38.866;2023-08-21T12:14:54;3.6;;;1.5;;
28455;SDS011;15682;56.742;38.866;2023-08-21T12:16:54;7.8;;;1.4;;
28455;SDS011;15682;56.742;38.866;2023-08-21T12:18:55;4.6;;;1.7;;
28455;SDS011;15682;56.742;38.866;2023-08-21T12:20:55;5.2;;;1.4;;